createdAt,value
2018-12-30T00:01:41.250Z,38.97
2018-12-30T00:04:08.918Z,32.17
2018-12-30T00:06:37.396Z,37.87
2018-12-30T00:09:05.891Z,32.73
2018-12-30T00:11:33.974Z,32.87
2018-12-30T00:14:01.759Z,38.53
2018-12-30T00:16:29.428Z,40.47
2018-12-30T00:18:57.195Z,36.90
2018-12-30T00:21:24.907Z,43.50
2018-12-30T00:23:52.674Z,51.00
2018-12-30T00:26:20.413Z,35.90
2018-12-30T00:28:48.183Z,30.47
2018-12-30T00:31:16.089Z,39.97
2018-12-30T00:33:43.914Z,37.57
2018-12-30T00:36:11.649Z,26.47
2018-12-30T00:38:39.344Z,32.63
2018-12-30T00:41:07.435Z,31.67
2018-12-30T00:43:35.214Z,37.60
2018-12-30T00:46:04.067Z,38.13
2018-12-30T00:48:32.133Z,27.63
2018-12-30T00:51:00.175Z,32.17
2018-12-30T00:53:28.093Z,34.77
2018-12-30T00:55:55.839Z,27.77
2018-12-30T00:58:23.812Z,28.03
2018-12-30T01:00:51.975Z,24.90
2018-12-30T01:03:20.041Z,27.43
2018-12-30T01:05:47.814Z,30.67
2018-12-30T01:08:15.895Z,25.57
2018-12-30T01:10:43.816Z,21.20
2018-12-30T01:13:11.542Z,31.80
2018-12-30T01:15:40.790Z,42.23
2018-12-30T01:18:08.630Z,20.50
2018-12-30T01:20:36.390Z,17.10
2018-12-30T01:23:04.080Z,21.40
2018-12-30T01:25:31.778Z,14.07
2018-12-30T01:27:59.630Z,19.40
2018-12-30T01:30:28.012Z,20.23
2018-12-30T01:32:55.865Z,14.53
2018-12-30T01:35:23.500Z,10.43
2018-12-30T01:37:51.514Z,13.90
2018-12-30T01:40:19.296Z,14.97
2018-12-30T01:42:47.015Z,18.00
2018-12-30T01:45:15.057Z,16.87
2018-12-30T01:47:42.772Z,11.70
2018-12-30T01:50:10.423Z,21.40
2018-12-30T01:52:39.810Z,14.73
2018-12-30T01:55:07.624Z,18.23
2018-12-30T01:57:35.645Z,19.23
2018-12-30T02:00:04.000Z,10.67
2018-12-30T02:02:32.004Z,17.73
2018-12-30T02:05:00.268Z,19.13
2018-12-30T02:07:27.952Z,14.80
2018-12-30T02:09:56.043Z,16.07
2018-12-30T02:12:24.116Z,13.03
2018-12-30T02:14:52.083Z,15.90
2018-12-30T02:17:19.790Z,15.63
2018-12-30T02:19:48.763Z,13.03
2018-12-30T02:22:17.555Z,19.00
2018-12-30T02:24:46.163Z,15.23
2018-12-30T02:27:14.258Z,15.60
2018-12-30T02:29:41.940Z,18.57
2018-12-30T02:32:09.614Z,22.50
2018-12-30T02:34:37.421Z,18.17
2018-12-30T02:37:05.231Z,23.67
2018-12-30T02:39:32.928Z,29.33
2018-12-30T02:42:00.991Z,19.60
2018-12-30T02:44:29.501Z,23.80
2018-12-30T02:46:58.199Z,22.13
2018-12-30T02:49:26.048Z,31.13
2018-12-30T02:51:53.850Z,33.90
2018-12-30T02:54:21.599Z,20.50
2018-12-30T02:56:49.383Z,23.60
2018-12-30T02:59:17.204Z,27.43
2018-12-30T03:01:44.926Z,25.23
2018-12-30T03:04:13.334Z,32.40
2018-12-30T03:06:41.011Z,32.53
2018-12-30T03:09:08.971Z,42.90
2018-12-30T03:11:37.031Z,26.67
2018-12-30T03:14:04.728Z,36.23
2018-12-30T03:16:32.881Z,35.87
2018-12-30T03:19:01.211Z,41.53
2018-12-30T03:21:28.917Z,32.47
2018-12-30T03:23:57.096Z,34.80
2018-12-30T03:26:24.965Z,29.40
2018-12-30T03:28:52.727Z,31.17
2018-12-30T03:31:20.439Z,33.40
2018-12-30T03:33:48.336Z,36.20
2018-12-30T03:36:16.390Z,28.73
2018-12-30T03:38:44.302Z,30.17
2018-12-30T03:41:12.225Z,32.37
2018-12-30T03:43:39.911Z,32.80
2018-12-30T03:46:07.669Z,37.83
2018-12-30T03:48:35.354Z,38.47
2018-12-30T03:51:03.432Z,46.27
2018-12-30T03:53:31.226Z,38.83
2018-12-30T03:55:58.951Z,44.97
2018-12-30T03:58:31.492Z,45.93
2018-12-30T04:00:59.188Z,40.27
2018-12-30T04:03:26.881Z,34.17
2018-12-30T04:05:54.726Z,32.50
2018-12-30T04:08:22.413Z,47.07
2018-12-30T04:10:50.422Z,31.90
2018-12-30T04:13:18.164Z,35.70
2018-12-30T04:15:46.179Z,35.63
2018-12-30T04:18:14.244Z,41.23
2018-12-30T04:20:41.926Z,33.53
2018-12-30T04:23:09.737Z,32.77
2018-12-30T04:25:37.421Z,33.33
2018-12-30T04:28:05.595Z,43.63
2018-12-30T04:30:33.264Z,43.13
2018-12-30T04:33:01.360Z,42.30
2018-12-30T04:35:29.718Z,38.53
2018-12-30T04:37:57.671Z,35.50
2018-12-30T04:40:25.356Z,45.87
2018-12-30T04:42:53.144Z,36.07
2018-12-30T04:45:21.067Z,48.63
2018-12-30T04:47:48.932Z,48.17
2018-12-30T04:50:17.023Z,48.63
2018-12-30T04:52:46.433Z,50.97
2018-12-30T04:55:14.136Z,50.07
2018-12-30T04:57:41.838Z,52.23
2018-12-30T05:00:09.513Z,57.00
2018-12-30T05:02:37.175Z,48.87
2018-12-30T05:05:10.250Z,63.03
2018-12-30T05:07:37.990Z,59.83
2018-12-30T05:12:32.396Z,62.73
2018-12-30T05:15:00.367Z,64.50
2018-12-30T05:17:28.449Z,64.17
2018-12-30T05:19:56.603Z,74.67
2018-12-30T05:22:34.014Z,70.87
2018-12-30T05:25:01.967Z,75.90
2018-12-30T05:27:29.852Z,60.93
2018-12-30T05:29:57.522Z,54.17
2018-12-30T05:32:25.195Z,53.23
2018-12-30T05:34:52.970Z,41.33
2018-12-30T05:37:40.356Z,50.57
2018-12-30T05:40:08.271Z,56.27
2018-12-30T05:42:36.294Z,56.40
2018-12-30T05:45:04.518Z,56.33
2018-12-30T05:47:32.973Z,59.60
2018-12-30T05:50:00.741Z,61.33
2018-12-30T05:52:28.783Z,59.67
2018-12-30T05:54:56.784Z,67.83
2018-12-30T05:57:24.720Z,63.20
2018-12-30T05:59:53.095Z,66.00
2018-12-30T06:02:21.063Z,68.03
2018-12-30T06:04:48.913Z,57.37
2018-12-30T06:07:16.980Z,53.60
2018-12-30T06:09:45.198Z,56.77
2018-12-30T06:12:13.049Z,57.13
2018-12-30T06:14:41.007Z,56.30
2018-12-30T06:17:08.873Z,69.80
2018-12-30T06:19:36.712Z,81.80
2018-12-30T06:22:04.590Z,71.47
2018-12-30T06:24:32.469Z,70.83
2018-12-30T06:27:00.411Z,66.37
2018-12-30T06:29:28.613Z,63.43
2018-12-30T06:31:57.011Z,50.10
2018-12-30T06:34:25.328Z,52.97
2018-12-30T06:36:53.119Z,62.50
2018-12-30T06:39:20.874Z,52.73
2018-12-30T06:41:48.567Z,60.13
2018-12-30T06:44:16.305Z,65.03
2018-12-30T06:46:43.958Z,75.20
2018-12-30T06:49:13.197Z,73.90
2018-12-30T06:51:40.881Z,78.87
2018-12-30T06:54:08.581Z,96.17
2018-12-30T06:56:36.677Z,86.50
2018-12-30T06:59:04.431Z,88.30
2018-12-30T07:01:32.078Z,89.57
2018-12-30T07:04:00.269Z,97.07
2018-12-30T07:06:28.279Z,90.90
2018-12-30T07:08:56.738Z,95.80
2018-12-30T07:11:24.727Z,98.60
2018-12-30T07:13:52.870Z,95.63
2018-12-30T07:16:20.965Z,90.80
2018-12-30T07:18:48.677Z,82.57
2018-12-30T07:21:16.685Z,90.03
2018-12-30T07:23:44.662Z,86.90
2018-12-30T07:26:12.536Z,67.47
2018-12-30T07:28:40.603Z,81.17
2018-12-30T07:31:08.411Z,79.97
2018-12-30T07:33:36.424Z,86.23
2018-12-30T07:36:04.405Z,103.40
2018-12-30T07:38:32.101Z,98.67
2018-12-30T07:40:59.901Z,101.70
2018-12-30T07:43:28.274Z,110.23
2018-12-30T07:45:55.952Z,108.17
2018-12-30T07:48:24.212Z,114.80
2018-12-30T07:50:51.933Z,108.97
2018-12-30T07:53:19.703Z,105.03
2018-12-30T07:55:50.000Z,117.63
2018-12-30T07:58:18.069Z,109.77
2018-12-30T08:00:45.996Z,105.80
2018-12-30T08:03:13.705Z,108.60
2018-12-30T08:05:41.701Z,113.93
2018-12-30T08:08:09.456Z,116.90
2018-12-30T08:10:37.172Z,120.13
2018-12-30T08:13:05.475Z,107.70
2018-12-30T08:15:33.114Z,110.07
2018-12-30T08:18:00.774Z,103.47
2018-12-30T08:20:28.388Z,105.23
2018-12-30T08:22:56.029Z,108.03
2018-12-30T08:25:27.063Z,96.07
2018-12-30T08:28:00.810Z,98.27
2018-12-30T08:30:29.161Z,88.10
2018-12-30T08:32:57.706Z,82.07
2018-12-30T08:38:16.506Z,89.10
2018-12-30T08:40:45.650Z,80.03
2018-12-30T08:43:14.114Z,89.23
2018-12-30T08:45:41.831Z,73.30
2018-12-30T08:48:09.531Z,77.50
2018-12-30T08:50:37.315Z,76.23
2018-12-30T08:53:06.372Z,70.93
2018-12-30T08:55:34.052Z,64.97
2018-12-30T08:58:01.843Z,62.60
2018-12-30T09:00:29.805Z,62.50
2018-12-30T09:02:57.774Z,56.37
2018-12-30T09:05:25.485Z,49.37
2018-12-30T09:07:53.149Z,58.67
2018-12-30T09:10:20.913Z,53.30
2018-12-30T09:12:48.567Z,55.67
2018-12-30T09:15:16.384Z,41.00
2018-12-30T09:17:44.352Z,43.87
2018-12-30T09:20:12.299Z,44.20
2018-12-30T09:22:40.665Z,41.83
2018-12-30T09:25:08.338Z,36.00
2018-12-30T09:27:35.974Z,38.47
2018-12-30T09:30:04.277Z,36.47
2018-12-30T09:32:32.045Z,42.57
2018-12-30T09:35:00.150Z,39.60
2018-12-30T09:37:27.867Z,36.17
2018-12-30T09:39:55.846Z,34.07
2018-12-30T09:42:23.975Z,39.67
2018-12-30T09:45:06.238Z,35.67
2018-12-30T09:47:34.055Z,42.10
2018-12-30T09:50:02.266Z,43.93
2018-12-30T09:52:30.462Z,41.73
2018-12-30T09:54:58.445Z,37.80
2018-12-30T09:57:26.247Z,39.13
2018-12-30T09:59:54.648Z,36.70
2018-12-30T10:02:23.713Z,38.83
2018-12-30T10:04:51.431Z,39.43
2018-12-30T10:07:19.463Z,36.40
2018-12-30T10:09:47.452Z,39.93
2018-12-30T10:12:16.740Z,44.87
2018-12-30T10:14:44.549Z,39.47
2018-12-30T10:17:12.447Z,35.50
2018-12-30T10:19:41.037Z,32.50
2018-12-30T10:22:08.672Z,32.13
2018-12-30T10:24:36.557Z,41.30
2018-12-30T10:27:04.473Z,32.10
2018-12-30T10:29:32.439Z,30.33
2018-12-30T10:32:00.269Z,29.40
2018-12-30T10:34:28.222Z,28.60
2018-12-30T10:36:55.948Z,26.20
2018-12-30T10:39:23.644Z,24.60
2018-12-30T10:41:51.949Z,25.20
2018-12-30T10:44:20.019Z,20.87
2018-12-30T10:46:47.715Z,28.00
2018-12-30T10:49:15.444Z,25.13
2018-12-30T10:51:43.284Z,26.97
2018-12-30T10:54:11.667Z,25.43
2018-12-30T10:56:40.111Z,21.87
2018-12-30T10:59:07.825Z,32.00
2018-12-30T11:01:35.712Z,27.53
2018-12-30T11:04:03.852Z,24.50
2018-12-30T11:06:31.659Z,28.77
2018-12-30T11:08:59.475Z,27.63
2018-12-30T11:11:27.644Z,26.87
2018-12-30T11:13:56.085Z,27.37
2018-12-30T11:16:24.968Z,27.37
2018-12-30T11:18:53.428Z,28.00
2018-12-30T11:21:21.341Z,33.70
2018-12-30T11:23:49.066Z,28.87
2018-12-30T11:26:16.726Z,26.07
2018-12-30T11:28:45.115Z,32.60
2018-12-30T11:31:13.862Z,26.87
2018-12-30T11:33:41.913Z,30.90
2018-12-30T11:36:11.315Z,19.80
2018-12-30T11:38:39.085Z,23.83
2018-12-30T11:41:08.169Z,21.97
2018-12-30T11:43:35.839Z,31.10
2018-12-30T11:46:03.993Z,23.10
2018-12-30T11:48:31.975Z,25.57
2018-12-30T11:50:59.971Z,22.40
2018-12-30T11:53:27.833Z,25.40
2018-12-30T11:55:55.554Z,22.43
2018-12-30T11:58:23.297Z,24.37
2018-12-30T12:00:51.036Z,28.67
2018-12-30T12:03:19.088Z,29.07
2018-12-30T12:05:47.017Z,22.57
2018-12-30T12:08:15.153Z,24.43
2018-12-30T12:10:44.559Z,21.33
2018-12-30T12:13:12.243Z,24.10
2018-12-30T12:15:39.960Z,24.13
2018-12-30T12:18:07.798Z,24.20
2018-12-30T12:20:35.868Z,19.30
2018-12-30T12:23:03.871Z,20.33
2018-12-30T12:25:31.613Z,23.97
2018-12-30T12:27:59.367Z,24.70
2018-12-30T12:30:27.453Z,27.93
2018-12-30T12:32:55.405Z,27.30
2018-12-30T12:35:23.087Z,32.67
2018-12-30T12:37:51.156Z,23.50
2018-12-30T12:40:19.164Z,29.50
2018-12-30T12:42:47.011Z,26.57
2018-12-30T12:45:15.069Z,28.67
2018-12-30T12:47:42.840Z,26.87
2018-12-30T12:50:10.666Z,26.80
2018-12-30T12:52:38.514Z,21.47
2018-12-30T12:55:06.470Z,26.80
2018-12-30T12:57:36.733Z,30.17
2018-12-30T13:00:06.362Z,29.27
2018-12-30T13:02:34.372Z,22.27
2018-12-30T13:05:02.054Z,26.60
2018-12-30T13:07:30.170Z,33.03
2018-12-30T13:09:57.875Z,25.17
2018-12-30T13:12:25.731Z,29.73
2018-12-30T13:14:53.414Z,28.83
2018-12-30T13:17:21.356Z,28.97
2018-12-30T13:19:49.025Z,23.70
2018-12-30T13:22:16.979Z,25.07
2018-12-30T13:24:44.719Z,28.87
2018-12-30T13:27:12.894Z,46.33
2018-12-30T13:29:40.752Z,35.57
2018-12-30T13:32:08.439Z,37.00
2018-12-30T13:34:36.288Z,33.30
2018-12-30T13:37:04.353Z,39.13
2018-12-30T13:39:32.430Z,36.80
2018-12-30T13:42:00.164Z,30.77
2018-12-30T13:44:28.022Z,37.60
2018-12-30T13:46:55.815Z,22.30
2018-12-30T13:49:23.907Z,32.60
2018-12-30T13:51:53.208Z,23.40
2018-12-30T13:54:21.057Z,32.10
2018-12-30T13:56:49.285Z,29.23
2018-12-30T13:59:17.172Z,31.37
2018-12-30T14:01:45.218Z,31.83
2018-12-30T14:04:13.196Z,30.97
2018-12-30T14:06:40.907Z,31.37
2018-12-30T14:09:08.959Z,27.90
2018-12-30T14:11:37.316Z,38.97
2018-12-30T14:14:05.006Z,36.80
2018-12-30T14:16:32.741Z,28.33
2018-12-30T14:19:00.597Z,32.23
2018-12-30T14:21:28.670Z,29.83
2018-12-30T14:23:56.742Z,30.63
2018-12-30T14:26:25.140Z,32.97
2018-12-30T14:28:53.612Z,36.47
2018-12-30T14:31:21.317Z,28.57
2018-12-30T14:33:49.093Z,25.80
2018-12-30T14:36:16.986Z,29.63
2018-12-30T14:38:45.488Z,30.83
2018-12-30T14:41:13.449Z,31.10
2018-12-30T14:43:41.177Z,39.10
2018-12-30T14:46:08.943Z,41.20
2018-12-30T14:48:36.748Z,41.43
2018-12-30T14:51:04.455Z,43.50
2018-12-30T14:53:33.384Z,45.20
2018-12-30T14:56:01.369Z,49.43
2018-12-30T14:58:29.197Z,50.90
2018-12-30T15:00:57.094Z,53.77
2018-12-30T15:03:25.050Z,58.07
2018-12-30T15:05:52.754Z,52.50
2018-12-30T15:08:20.465Z,62.40
2018-12-30T15:10:48.238Z,66.00
2018-12-30T15:13:15.927Z,65.03
2018-12-30T15:15:43.620Z,62.90
2018-12-30T15:18:11.547Z,60.87
2018-12-30T15:20:39.259Z,56.53
2018-12-30T15:23:06.988Z,61.23
2018-12-30T15:25:34.749Z,50.60
2018-12-30T15:28:02.683Z,51.23
2018-12-30T15:30:31.636Z,38.23
2018-12-30T15:32:59.610Z,42.07
2018-12-30T15:35:27.324Z,30.63
2018-12-30T15:37:55.649Z,38.43
2018-12-30T15:40:23.448Z,30.40
2018-12-30T15:42:51.134Z,29.37
2018-12-30T15:45:18.900Z,24.43
2018-12-30T15:47:46.981Z,26.43
2018-12-30T15:50:15.129Z,31.80
2018-12-30T15:52:43.127Z,25.57
2018-12-30T15:55:10.898Z,20.70
2018-12-30T15:57:38.862Z,18.33
2018-12-30T16:00:07.321Z,16.07
2018-12-30T16:02:36.443Z,22.73
2018-12-30T16:05:04.588Z,17.37
2018-12-30T16:07:32.298Z,17.27
2018-12-30T16:09:59.982Z,15.97
2018-12-30T16:12:27.703Z,16.00
2018-12-30T16:14:55.621Z,19.53
2018-12-30T16:17:23.460Z,18.93
2018-12-30T16:19:51.484Z,18.53
2018-12-30T16:22:19.394Z,16.27
2018-12-30T16:24:47.494Z,19.07
2018-12-30T16:27:15.715Z,21.00
2018-12-30T16:29:43.485Z,23.23
2018-12-30T16:32:11.331Z,23.90
2018-12-30T16:34:58.559Z,22.77
2018-12-30T16:37:26.389Z,20.63
2018-12-30T16:39:54.500Z,21.70
2018-12-30T16:42:23.273Z,20.73
2018-12-30T16:44:51.288Z,22.57
2018-12-30T16:47:19.001Z,23.53
2018-12-30T16:49:46.973Z,28.93
2018-12-30T16:52:14.687Z,66.10
2018-12-30T16:54:42.388Z,28.00
2018-12-30T16:57:10.085Z,30.73
2018-12-30T16:59:37.784Z,28.83
2018-12-30T17:02:05.897Z,30.67
2018-12-30T17:04:33.781Z,31.03
2018-12-30T17:07:01.689Z,33.83
2018-12-30T17:09:29.537Z,40.50
2018-12-30T17:11:57.221Z,40.33
2018-12-30T17:14:25.238Z,39.73
2018-12-30T17:16:53.278Z,37.50
2018-12-30T17:19:22.293Z,45.37
2018-12-30T17:21:49.999Z,48.50
2018-12-30T17:24:17.863Z,50.13
2018-12-30T17:26:45.744Z,56.00
2018-12-30T17:29:14.378Z,54.27
2018-12-30T17:31:42.068Z,68.07
2018-12-30T17:34:09.895Z,67.07
2018-12-30T17:36:38.135Z,65.90
2018-12-30T17:39:06.127Z,62.50
2018-12-30T17:41:34.000Z,70.27
2018-12-30T17:44:01.671Z,72.47
2018-12-30T17:46:29.661Z,70.63
2018-12-30T17:48:57.352Z,73.73
2018-12-30T17:51:25.124Z,79.47
2018-12-30T17:53:53.394Z,77.00
2018-12-30T17:56:21.187Z,71.03
2018-12-30T17:58:48.994Z,72.17
2018-12-30T18:01:16.836Z,76.27
2018-12-30T18:03:44.776Z,82.83
2018-12-30T18:06:12.422Z,75.10
2018-12-30T18:08:40.599Z,81.00
2018-12-30T18:11:08.325Z,84.70
2018-12-30T18:13:36.117Z,73.10
2018-12-30T18:16:04.293Z,90.63
2018-12-30T18:18:31.992Z,88.80
2018-12-30T18:20:59.850Z,80.80
2018-12-30T18:23:27.748Z,75.10
2018-12-30T18:25:58.706Z,78.57
2018-12-30T18:28:26.783Z,80.30
2018-12-30T18:31:12.568Z,81.17
2018-12-30T18:33:41.887Z,86.83
2018-12-30T18:36:09.628Z,71.77
2018-12-30T18:38:37.620Z,88.07
2018-12-30T18:41:05.696Z,77.23
2018-12-30T18:43:33.403Z,84.73
2018-12-30T18:46:19.525Z,81.73
2018-12-30T18:48:47.589Z,81.17
2018-12-30T18:51:15.402Z,84.67
2018-12-30T18:53:43.532Z,84.13
2018-12-30T18:56:29.332Z,83.17
2018-12-30T18:58:57.445Z,86.80
2018-12-30T19:01:25.498Z,86.30
2018-12-30T19:04:12.434Z,100.20
2018-12-30T19:06:40.109Z,80.73
2018-12-30T19:09:07.918Z,91.50
2018-12-30T19:11:35.590Z,88.17
2018-12-30T19:14:21.845Z,93.33
2018-12-30T19:17:07.841Z,87.13
2018-12-30T19:19:35.839Z,89.80
2018-12-30T19:22:03.532Z,89.80
2018-12-30T19:24:31.870Z,91.57
2018-12-30T19:27:18.047Z,91.27
2018-12-30T19:29:46.109Z,90.93
2018-12-30T19:32:50.354Z,91.47
2018-12-30T19:35:18.896Z,85.10
2018-12-30T19:37:48.132Z,78.13
2018-12-30T19:40:16.245Z,93.43
2018-12-30T19:42:44.350Z,97.17
2018-12-30T19:45:30.703Z,108.37
2018-12-30T19:47:58.759Z,95.83
2018-12-30T19:50:26.768Z,110.27
2018-12-30T19:52:54.829Z,179.13
2018-12-30T19:55:23.108Z,125.57
2018-12-30T19:57:51.195Z,120.47
2018-12-30T20:00:19.377Z,108.53
2018-12-30T20:02:47.532Z,113.27
2018-12-30T20:05:15.553Z,142.47
2018-12-30T20:07:43.672Z,114.40
2018-12-30T20:10:11.772Z,110.83
2018-12-30T20:12:40.206Z,102.10
2018-12-30T20:15:08.480Z,110.50
2018-12-30T20:17:36.694Z,113.07
2018-12-30T20:20:05.561Z,109.47
2018-12-30T20:22:33.919Z,109.70
2018-12-30T20:25:02.322Z,115.00
2018-12-30T20:27:30.738Z,146.27
2018-12-30T20:29:59.089Z,139.87
2018-12-30T20:32:27.270Z,135.37
2018-12-30T20:34:55.822Z,117.97
2018-12-30T20:37:23.844Z,103.00
2018-12-30T20:39:51.879Z,118.63
2018-12-30T20:42:20.072Z,109.67
2018-12-30T20:44:48.458Z,104.23
2018-12-30T20:47:16.885Z,106.10
2018-12-30T20:49:45.305Z,115.03
2018-12-30T20:52:13.397Z,108.00
2018-12-30T20:54:44.422Z,102.17
2018-12-30T20:57:12.357Z,111.03
2018-12-30T20:59:40.386Z,98.70
2018-12-30T21:02:08.418Z,105.27
2018-12-30T21:04:36.574Z,111.57
2018-12-30T21:07:04.628Z,94.37
2018-12-30T21:09:32.418Z,94.53
2018-12-30T21:12:00.260Z,103.33
2018-12-30T21:14:28.386Z,98.07
2018-12-30T21:16:56.149Z,90.77
2018-12-30T21:19:23.813Z,100.70
2018-12-30T21:21:52.210Z,101.53
2018-12-30T21:24:19.906Z,103.93
2018-12-30T21:26:47.662Z,98.13
2018-12-30T21:29:16.376Z,96.63
2018-12-30T21:31:44.217Z,83.53
2018-12-30T21:34:11.971Z,91.17
2018-12-30T21:36:39.700Z,82.00
2018-12-30T21:39:08.730Z,78.37
2018-12-30T21:41:36.366Z,103.87
2018-12-30T21:44:04.141Z,72.47
2018-12-30T21:46:31.802Z,76.47
2018-12-30T21:48:59.664Z,84.57
2018-12-30T21:51:28.134Z,70.97
2018-12-30T21:53:55.858Z,68.50
2018-12-30T21:56:23.584Z,67.73
2018-12-30T21:58:51.296Z,56.60
2018-12-30T22:01:19.045Z,71.07
2018-12-30T22:03:46.982Z,73.47
2018-12-30T22:06:14.746Z,60.00
2018-12-30T22:08:42.417Z,58.27
2018-12-30T22:11:10.082Z,63.43
2018-12-30T22:13:37.894Z,59.33
2018-12-30T22:16:06.084Z,59.27
2018-12-30T22:18:34.235Z,63.10
2018-12-30T22:21:03.058Z,60.60
2018-12-30T22:23:31.428Z,64.87
2018-12-30T22:25:59.622Z,53.77
2018-12-30T22:28:28.309Z,57.97
2018-12-30T22:30:56.493Z,58.70
2018-12-30T22:33:24.712Z,57.27
2018-12-30T22:35:52.825Z,58.67
2018-12-30T22:38:21.289Z,52.10
2018-12-30T22:40:50.853Z,50.17
2018-12-30T22:43:18.562Z,54.83
2018-12-30T22:45:46.853Z,51.97
2018-12-30T22:48:14.523Z,64.90
2018-12-30T22:50:42.274Z,59.20
2018-12-30T22:53:09.941Z,59.27
2018-12-30T22:55:38.091Z,64.30
2018-12-30T22:58:05.773Z,64.87
2018-12-30T23:01:11.366Z,60.37
2018-12-30T23:03:41.024Z,60.00
2018-12-30T23:06:08.816Z,57.73
2018-12-30T23:08:36.593Z,67.97
2018-12-30T23:11:04.271Z,65.17
2018-12-30T23:13:32.664Z,65.67
2018-12-30T23:16:00.326Z,71.30
2018-12-30T23:18:28.044Z,78.37
2018-12-30T23:20:55.731Z,76.50
2018-12-30T23:23:23.461Z,72.10
2018-12-30T23:25:51.372Z,76.70
2018-12-30T23:28:19.102Z,76.80
2018-12-30T23:30:47.062Z,74.83
2018-12-30T23:33:14.836Z,74.40
2018-12-30T23:35:42.474Z,69.63
2018-12-30T23:38:10.178Z,65.40
2018-12-30T23:40:37.877Z,70.40
2018-12-30T23:43:05.578Z,64.27
2018-12-30T23:45:33.253Z,66.60
2018-12-30T23:48:01.018Z,69.13
2018-12-30T23:50:28.676Z,69.50
2018-12-30T23:52:56.414Z,70.27
2018-12-30T23:55:25.371Z,71.63
2018-12-30T23:57:53.111Z,70.30
